createdAt,value
2023-06-09T00:00:27.888Z,20.42
2023-06-09T00:02:56.032Z,20.37
2023-06-09T00:05:25.059Z,20.32
2023-06-09T00:07:56.840Z,20.36
2023-06-09T00:10:24.602Z,20.28
2023-06-09T00:12:52.389Z,20.40
2023-06-09T00:15:20.061Z,20.36
2023-06-09T00:17:48.197Z,20.33
2023-06-09T00:20:16.354Z,20.24
2023-06-09T00:22:44.220Z,20.21
2023-06-09T00:25:13.537Z,20.23
2023-06-09T00:27:41.466Z,20.25
2023-06-09T00:30:09.503Z,20.18
2023-06-09T00:32:37.712Z,20.18
2023-06-09T00:35:05.796Z,20.18
2023-06-09T00:37:33.541Z,20.13
2023-06-09T00:40:01.538Z,20.14
2023-06-09T00:42:31.352Z,20.15
2023-06-09T00:44:58.811Z,20.18
2023-06-09T00:47:27.640Z,20.16
2023-06-09T00:49:55.589Z,20.13
2023-06-09T00:52:23.636Z,20.11
2023-06-09T00:54:53.468Z,20.14
2023-06-09T00:57:20.982Z,20.15
2023-06-09T00:59:48.514Z,20.15
2023-06-09T01:02:16.237Z,20.08
2023-06-09T01:04:50.694Z,20.09
2023-06-09T01:07:40.092Z,20.12
2023-06-09T01:10:25.959Z,20.02
2023-06-09T01:13:03.929Z,20.05
2023-06-09T01:15:37.454Z,19.99
2023-06-09T01:18:10.081Z,19.99
2023-06-09T01:20:57.977Z,20.00
2023-06-09T01:23:50.144Z,20.06
2023-06-09T01:26:20.382Z,20.10
2023-06-09T01:28:49.110Z,20.18
2023-06-09T01:31:17.643Z,20.14
2023-06-09T01:33:46.000Z,20.16
2023-06-09T01:36:14.727Z,20.19
2023-06-09T01:38:43.069Z,20.17
2023-06-09T01:41:11.024Z,20.26
2023-06-09T01:43:38.604Z,20.19
2023-06-09T01:46:06.393Z,20.15
2023-06-09T01:48:52.711Z,20.09
2023-06-09T01:51:30.523Z,20.10
2023-06-09T01:54:05.733Z,19.99
2023-06-09T01:56:38.964Z,19.98
2023-06-09T01:59:09.977Z,19.91
2023-06-09T02:01:39.926Z,19.91
2023-06-09T02:04:09.702Z,19.94
2023-06-09T02:06:37.823Z,19.94
2023-06-09T02:09:06.022Z,19.93
2023-06-09T02:11:33.516Z,19.91
2023-06-09T02:14:01.310Z,20.12
2023-06-09T02:16:28.712Z,19.96
2023-06-09T02:18:57.343Z,19.92
2023-06-09T02:21:24.894Z,19.89
2023-06-09T02:23:52.430Z,20.04
2023-06-09T02:26:21.616Z,19.92
2023-06-09T02:28:49.174Z,19.67
2023-06-09T02:31:17.268Z,19.61
2023-06-09T02:33:44.822Z,19.59
2023-06-09T02:36:14.142Z,19.77
2023-06-09T02:38:41.840Z,19.77
2023-06-09T02:41:09.539Z,19.77
2023-06-09T02:43:36.984Z,19.79
2023-06-09T02:46:05.563Z,19.72
2023-06-09T02:48:33.145Z,19.69
2023-06-09T02:51:00.948Z,19.70
2023-06-09T02:53:29.939Z,19.76
2023-06-09T02:55:59.818Z,19.70
2023-06-09T02:58:32.238Z,19.64
2023-06-09T03:01:00.075Z,19.72
2023-06-09T03:03:30.099Z,19.71
2023-06-09T03:05:59.754Z,19.71
2023-06-09T03:08:28.546Z,19.54
2023-06-09T03:10:56.128Z,19.60
2023-06-09T03:13:23.690Z,19.75
2023-06-09T03:15:54.168Z,19.65
2023-06-09T03:18:22.103Z,19.53
2023-06-09T03:20:52.140Z,19.54
2023-06-09T03:23:21.712Z,19.60
2023-06-09T03:25:52.934Z,19.54
2023-06-09T03:28:21.724Z,19.43
2023-06-09T03:30:49.269Z,19.54
2023-06-09T03:33:19.815Z,19.58
2023-06-09T03:35:49.400Z,19.58
2023-06-09T03:38:18.314Z,19.44
2023-06-09T03:40:45.948Z,19.54
2023-06-09T03:43:13.469Z,19.64
2023-06-09T03:45:41.438Z,19.63
2023-06-09T03:48:10.493Z,19.71
2023-06-09T03:50:39.264Z,19.72
2023-06-09T03:53:07.152Z,19.72
2023-06-09T03:55:34.745Z,19.73
2023-06-09T03:58:03.200Z,19.63
2023-06-09T04:00:30.953Z,19.79
2023-06-09T04:03:01.584Z,19.82
2023-06-09T04:05:29.550Z,19.81
2023-06-09T04:07:58.421Z,19.73
2023-06-09T04:10:26.245Z,19.68
2023-06-09T04:12:54.175Z,19.73
2023-06-09T04:15:21.733Z,19.72
2023-06-09T04:17:52.816Z,19.79
2023-06-09T04:20:25.948Z,19.71
2023-06-09T04:22:55.388Z,19.63
2023-06-09T04:25:29.261Z,19.53
2023-06-09T04:28:04.431Z,19.55
2023-06-09T04:30:35.583Z,19.57
2023-06-09T04:33:06.257Z,19.54
2023-06-09T04:35:33.970Z,19.65
2023-06-09T04:38:04.150Z,19.70
2023-06-09T04:40:33.203Z,19.73
2023-06-09T04:43:03.136Z,19.67
2023-06-09T04:45:36.191Z,19.78
2023-06-09T04:48:09.452Z,19.86
2023-06-09T04:50:38.704Z,20.00
2023-06-09T04:53:08.618Z,19.95
2023-06-09T04:55:46.442Z,19.76
2023-06-09T04:58:16.609Z,19.78
2023-06-09T05:00:44.483Z,19.90
2023-06-09T05:03:14.903Z,20.06
2023-06-09T05:05:43.251Z,20.10
2023-06-09T05:08:10.756Z,20.10
2023-06-09T05:10:38.868Z,20.15
2023-06-09T05:13:06.481Z,20.21
2023-06-09T05:15:35.034Z,20.30
2023-06-09T05:18:02.978Z,20.40
2023-06-09T05:20:30.958Z,20.52
2023-06-09T05:22:58.451Z,20.41
2023-06-09T05:25:26.590Z,20.53
2023-06-09T05:27:54.189Z,20.56
2023-06-09T05:30:21.799Z,20.61
2023-06-09T05:32:49.733Z,20.65
2023-06-09T05:35:18.064Z,20.79
2023-06-09T05:37:53.391Z,20.92
2023-06-09T05:40:24.370Z,20.90
2023-06-09T05:42:51.987Z,20.96
2023-06-09T05:45:19.503Z,20.97
2023-06-09T05:47:47.250Z,21.16
2023-06-09T05:50:14.807Z,21.51
2023-06-09T05:52:42.197Z,22.17
2023-06-09T05:55:09.894Z,22.72
2023-06-09T05:57:38.203Z,22.64
2023-06-09T06:00:09.892Z,22.71
2023-06-09T06:02:41.036Z,22.69
2023-06-09T06:05:09.179Z,22.71
2023-06-09T06:07:37.556Z,22.67
2023-06-09T06:10:06.967Z,22.59
2023-06-09T06:12:34.664Z,22.47
2023-06-09T06:15:03.544Z,22.47
2023-06-09T06:17:32.128Z,22.32
2023-06-09T06:19:59.597Z,22.23
2023-06-09T06:22:27.206Z,22.14
2023-06-09T06:24:54.812Z,22.22
2023-06-09T06:27:22.887Z,22.36
2023-06-09T06:29:50.461Z,22.38
2023-06-09T06:32:18.319Z,22.45
2023-06-09T06:34:46.054Z,22.60
2023-06-09T06:37:13.627Z,22.68
2023-06-09T06:39:41.362Z,22.77
2023-06-09T06:42:08.881Z,22.72
2023-06-09T06:44:53.117Z,22.79
2023-06-09T06:47:21.402Z,22.83
2023-06-09T06:49:48.896Z,22.78
2023-06-09T06:52:16.490Z,22.60
2023-06-09T06:54:43.875Z,22.61
2023-06-09T06:57:11.319Z,22.65
2023-06-09T06:59:38.808Z,22.69
2023-06-09T07:02:06.467Z,22.61
2023-06-09T07:04:33.957Z,22.55
2023-06-09T07:07:01.431Z,22.55
2023-06-09T07:09:29.173Z,22.66
2023-06-09T07:11:57.011Z,22.76
2023-06-09T07:14:24.884Z,22.77
2023-06-09T07:16:52.524Z,22.86
2023-06-09T07:19:20.013Z,22.87
2023-06-09T07:21:48.022Z,22.89
2023-06-09T07:24:15.623Z,22.93
2023-06-09T07:26:43.256Z,22.99
2023-06-09T07:29:10.724Z,23.02
2023-06-09T07:31:38.232Z,23.06
2023-06-09T07:34:07.458Z,23.10
2023-06-09T07:36:36.241Z,23.22
2023-06-09T07:39:05.171Z,23.18
2023-06-09T07:41:32.800Z,23.33
2023-06-09T07:44:00.901Z,23.39
2023-06-09T07:46:28.554Z,23.41
2023-06-09T07:48:56.069Z,23.47
2023-06-09T07:51:23.539Z,23.54
2023-06-09T07:53:51.225Z,23.58
2023-06-09T07:56:18.704Z,23.68
2023-06-09T07:58:46.221Z,23.63
2023-06-09T08:01:13.802Z,23.69
2023-06-09T08:03:41.461Z,23.62
2023-06-09T08:06:09.460Z,23.61
2023-06-09T08:08:38.508Z,23.63
2023-06-09T08:11:06.118Z,23.76
2023-06-09T08:13:33.592Z,23.77
2023-06-09T08:16:01.181Z,23.85
2023-06-09T08:18:28.800Z,24.04
2023-06-09T08:20:56.270Z,24.25
2023-06-09T08:23:24.100Z,24.20
2023-06-09T08:25:51.728Z,24.23
2023-06-09T08:28:19.159Z,24.24
2023-06-09T08:30:46.776Z,24.04
2023-06-09T08:33:14.415Z,23.89
2023-06-09T08:35:41.961Z,24.08
2023-06-09T08:38:09.690Z,24.29
2023-06-09T08:40:37.325Z,24.08
2023-06-09T08:43:06.479Z,24.06
2023-06-09T08:45:35.585Z,24.08
2023-06-09T08:48:05.335Z,24.01
2023-06-09T08:50:33.612Z,23.92
2023-06-09T08:53:01.980Z,23.98
2023-06-09T08:55:29.815Z,24.18
2023-06-09T08:57:57.337Z,24.20
2023-06-09T09:00:25.610Z,24.21
2023-06-09T09:02:53.165Z,24.31
2023-06-09T09:05:20.962Z,24.14
2023-06-09T09:07:48.681Z,24.03
2023-06-09T09:10:16.650Z,24.15
2023-06-09T09:12:52.553Z,24.26
2023-06-09T09:15:24.068Z,24.42
2023-06-09T09:17:51.609Z,24.49
2023-06-09T09:20:19.437Z,24.75
2023-06-09T09:22:51.702Z,24.93
2023-06-09T09:25:23.127Z,24.95
2023-06-09T09:28:06.903Z,24.84
2023-06-09T09:30:41.615Z,25.12
2023-06-09T09:33:10.683Z,25.38
2023-06-09T09:35:45.129Z,25.35
2023-06-09T09:38:15.773Z,25.22
2023-06-09T09:40:48.578Z,25.06
2023-06-09T09:43:16.793Z,24.91
2023-06-09T09:48:31.690Z,25.53
2023-06-09T09:50:59.526Z,25.65
2023-06-09T09:53:27.964Z,25.61
2023-06-09T09:55:57.795Z,25.70
2023-06-09T09:58:34.960Z,25.35
2023-06-09T10:01:07.129Z,25.24
2023-06-09T10:03:36.052Z,25.29
2023-06-09T10:06:07.574Z,25.50
2023-06-09T10:08:35.347Z,25.69
2023-06-09T10:11:04.060Z,25.71
2023-06-09T10:13:31.858Z,25.68
2023-06-09T10:16:01.060Z,25.74
2023-06-09T10:18:28.793Z,25.70
2023-06-09T10:20:57.064Z,25.79
2023-06-09T10:23:24.608Z,26.01
2023-06-09T10:25:53.036Z,26.14
2023-06-09T10:28:21.618Z,26.17
2023-06-09T10:30:51.253Z,25.78
2023-06-09T10:33:35.723Z,26.02
2023-06-09T10:36:10.247Z,26.05
2023-06-09T10:38:46.964Z,26.13
2023-06-09T10:41:34.228Z,26.18
2023-06-09T10:44:42.229Z,25.72
2023-06-09T10:47:10.430Z,25.92
2023-06-09T10:49:42.156Z,26.11
2023-06-09T10:52:46.338Z,26.01
2023-06-09T10:55:16.347Z,25.60
2023-06-09T10:57:44.524Z,25.25
2023-06-09T11:00:18.105Z,25.24
2023-06-09T11:02:50.012Z,25.26
2023-06-09T11:05:20.394Z,25.32
2023-06-09T11:07:53.689Z,25.39
2023-06-09T11:10:21.065Z,25.47
2023-06-09T11:12:51.009Z,25.55
2023-06-09T11:15:18.765Z,25.57
2023-06-09T11:17:48.307Z,25.48
2023-06-09T11:20:19.964Z,25.58
2023-06-09T11:22:50.102Z,25.59
2023-06-09T11:25:20.951Z,25.55
2023-06-09T11:28:08.783Z,25.68
2023-06-09T11:31:00.901Z,25.70
2023-06-09T11:33:46.822Z,25.79
2023-06-09T11:36:22.456Z,25.77
2023-06-09T11:38:51.587Z,25.66
2023-06-09T11:41:23.960Z,25.76
2023-06-09T11:43:56.335Z,25.69
2023-06-09T11:46:24.365Z,25.77
2023-06-09T11:49:04.571Z,25.91
2023-06-09T11:51:57.940Z,26.14
2023-06-09T11:54:44.606Z,26.14
2023-06-09T11:57:15.155Z,26.09
2023-06-09T11:59:46.446Z,26.15
2023-06-09T12:02:18.079Z,26.21
2023-06-09T12:04:47.198Z,26.29
2023-06-09T12:07:15.359Z,26.07
2023-06-09T12:09:43.907Z,26.09
2023-06-09T12:12:11.858Z,26.17
2023-06-09T12:14:40.360Z,26.31
2023-06-09T12:17:08.065Z,26.33
2023-06-09T12:19:35.580Z,26.53
2023-06-09T12:22:04.590Z,26.68
2023-06-09T12:24:32.857Z,26.55
2023-06-09T12:27:12.413Z,25.94
2023-06-09T12:29:40.601Z,25.99
2023-06-09T12:32:12.164Z,26.11
2023-06-09T12:34:39.812Z,26.27
2023-06-09T12:37:07.914Z,26.30
2023-06-09T12:39:35.568Z,26.21
2023-06-09T12:42:13.891Z,26.22
2023-06-09T12:44:41.526Z,26.24
2023-06-09T12:47:16.093Z,26.44
2023-06-09T12:49:45.659Z,26.47
2023-06-09T12:52:13.095Z,26.42
2023-06-09T12:54:42.252Z,26.44
2023-06-09T12:57:09.829Z,26.29
2023-06-09T12:59:37.910Z,26.23
2023-06-09T13:02:06.898Z,26.01
2023-06-09T13:04:34.414Z,26.09
2023-06-09T13:07:02.477Z,26.21
2023-06-09T13:09:30.040Z,26.27
2023-06-09T13:11:57.653Z,26.28
2023-06-09T13:14:25.210Z,26.34
2023-06-09T13:16:53.508Z,26.25
2023-06-09T13:19:21.522Z,26.22
2023-06-09T13:21:49.066Z,26.25
2023-06-09T13:24:16.622Z,26.35
2023-06-09T13:26:45.074Z,26.36
2023-06-09T13:29:12.599Z,26.40
2023-06-09T13:31:40.154Z,26.29
2023-06-09T13:34:07.569Z,26.13
2023-06-09T13:36:35.368Z,26.31
2023-06-09T13:39:04.014Z,26.34
2023-06-09T13:41:32.125Z,26.25
2023-06-09T13:44:04.807Z,26.39
2023-06-09T13:46:32.820Z,26.38
2023-06-09T13:49:05.306Z,26.43
2023-06-09T13:51:35.387Z,26.40
2023-06-09T13:54:02.884Z,26.34
2023-06-09T13:56:30.360Z,26.28
2023-06-09T13:58:57.997Z,26.20
2023-06-09T14:01:25.521Z,26.24
2023-06-09T14:03:53.397Z,26.24
2023-06-09T14:06:21.226Z,26.29
2023-06-09T14:08:48.719Z,26.27
2023-06-09T14:11:18.549Z,26.22
2023-06-09T14:13:50.165Z,26.20
2023-06-09T14:16:17.685Z,26.32
2023-06-09T14:18:45.464Z,26.40
2023-06-09T14:21:13.899Z,26.48
2023-06-09T14:23:41.814Z,26.50
2023-06-09T14:26:09.409Z,26.51
2023-06-09T14:28:36.872Z,26.48
2023-06-09T14:31:04.364Z,26.46
2023-06-09T14:33:31.823Z,26.45
2023-06-09T14:35:59.476Z,26.25
2023-06-09T14:38:26.901Z,26.24
2023-06-09T14:40:55.033Z,26.20
2023-06-09T14:43:22.580Z,26.23
2023-06-09T14:45:50.033Z,26.26
2023-06-09T14:48:19.862Z,26.51
2023-06-09T14:50:50.616Z,26.51
2023-06-09T14:53:18.586Z,26.47
2023-06-09T14:55:48.584Z,26.56
2023-06-09T14:58:18.134Z,26.60
2023-06-09T15:00:46.873Z,26.57
2023-06-09T15:03:19.420Z,26.53
2023-06-09T15:05:47.524Z,26.57
2023-06-09T15:08:15.128Z,26.60
2023-06-09T15:10:44.539Z,26.66
2023-06-09T15:13:14.241Z,26.69
2023-06-09T15:15:41.916Z,26.46
2023-06-09T15:18:10.669Z,26.43
2023-06-09T15:20:42.308Z,26.51
2023-06-09T15:23:11.810Z,26.54
2023-06-09T15:25:41.720Z,26.50
2023-06-09T15:28:17.689Z,26.51
2023-06-09T15:30:50.161Z,26.61
2023-06-09T15:33:20.525Z,26.57
2023-06-09T15:35:51.058Z,26.50
2023-06-09T15:38:20.576Z,26.48
2023-06-09T15:40:50.465Z,26.54
2023-06-09T15:43:20.499Z,26.52
2023-06-09T15:45:49.969Z,26.37
2023-06-09T15:48:18.080Z,26.48
2023-06-09T15:50:46.822Z,26.48
2023-06-09T15:53:20.453Z,26.49
2023-06-09T15:55:49.225Z,26.57
2023-06-09T15:58:16.942Z,26.47
2023-06-09T16:00:46.240Z,26.55
2023-06-09T16:03:14.089Z,26.58
2023-06-09T16:05:43.211Z,26.47
2023-06-09T16:08:13.350Z,26.36
2023-06-09T16:10:42.454Z,26.20
2023-06-09T16:13:10.811Z,26.12
2023-06-09T16:15:40.295Z,26.17
2023-06-09T16:18:11.891Z,26.24
2023-06-09T16:20:42.876Z,26.27
2023-06-09T16:23:12.701Z,26.18
2023-06-09T16:25:40.350Z,26.19
2023-06-09T16:28:09.258Z,26.13
2023-06-09T16:30:39.668Z,26.09
2023-06-09T16:33:09.409Z,26.05
2023-06-09T16:35:37.992Z,26.04
2023-06-09T16:38:06.860Z,25.98
2023-06-09T16:40:34.559Z,25.99
2023-06-09T16:43:02.514Z,25.89
2023-06-09T16:45:30.367Z,25.90
2023-06-09T16:47:58.795Z,25.80
2023-06-09T16:50:26.632Z,25.85
2023-06-09T16:52:55.508Z,25.83
2023-06-09T16:55:23.335Z,25.87
2023-06-09T16:57:50.939Z,25.86
2023-06-09T17:00:18.924Z,25.79
2023-06-09T17:02:46.628Z,25.80
2023-06-09T17:05:14.340Z,25.77
2023-06-09T17:07:41.796Z,25.75
2023-06-09T17:10:09.604Z,25.74
2023-06-09T17:12:37.172Z,25.72
2023-06-09T17:15:05.182Z,25.66
2023-06-09T17:17:33.415Z,25.62
2023-06-09T17:20:01.402Z,25.58
2023-06-09T17:22:28.956Z,25.53
2023-06-09T17:24:56.495Z,25.47
2023-06-09T17:27:24.226Z,25.55
2023-06-09T17:29:51.691Z,25.49
2023-06-09T17:32:19.175Z,25.47
2023-06-09T17:34:46.701Z,25.43
2023-06-09T17:37:15.609Z,25.52
2023-06-09T17:39:43.520Z,25.49
2023-06-09T17:42:11.912Z,25.46
2023-06-09T17:44:39.407Z,25.42
2023-06-09T17:47:07.117Z,25.44
2023-06-09T17:49:34.716Z,25.45
2023-06-09T17:52:02.287Z,25.39
2023-06-09T17:54:35.760Z,25.32
2023-06-09T17:57:05.584Z,25.25
2023-06-09T17:59:33.126Z,25.27
2023-06-09T18:02:02.638Z,25.28
2023-06-09T18:04:30.121Z,25.21
2023-06-09T18:06:57.854Z,25.23
2023-06-09T18:09:26.090Z,25.22
2023-06-09T18:11:53.652Z,25.18
2023-06-09T18:14:21.119Z,25.18
2023-06-09T18:16:48.558Z,25.16
2023-06-09T18:19:16.152Z,25.05
2023-06-09T18:21:44.334Z,25.05
2023-06-09T18:24:11.976Z,25.03
2023-06-09T18:26:39.729Z,24.95
2023-06-09T18:29:07.530Z,24.96
2023-06-09T18:31:36.116Z,24.94
2023-06-09T18:34:03.998Z,24.91
2023-06-09T18:36:32.861Z,24.86
2023-06-09T18:39:00.488Z,24.83
2023-06-09T18:41:28.197Z,24.79
2023-06-09T18:43:57.516Z,24.74
2023-06-09T18:46:25.054Z,24.66
2023-06-09T18:49:01.247Z,24.62
2023-06-09T18:51:29.417Z,24.52
2023-06-09T18:53:56.955Z,24.50
2023-06-09T18:56:24.735Z,24.47
2023-06-09T18:58:52.354Z,24.43
2023-06-09T19:01:20.862Z,24.42
2023-06-09T19:03:48.724Z,24.39
2023-06-09T19:06:17.069Z,24.34
2023-06-09T19:08:45.748Z,24.30
2023-06-09T19:11:14.290Z,24.30
2023-06-09T19:13:42.102Z,24.31
2023-06-09T19:16:10.217Z,24.30
2023-06-09T19:18:37.851Z,24.32
2023-06-09T19:21:05.488Z,24.32
2023-06-09T19:23:33.078Z,24.30
2023-06-09T19:26:01.893Z,24.30
2023-06-09T19:28:29.443Z,24.26
2023-06-09T19:30:56.956Z,24.23
2023-06-09T19:33:24.565Z,24.20
2023-06-09T19:35:52.830Z,24.19
2023-06-09T19:38:20.453Z,24.18
2023-06-09T19:40:47.933Z,24.10
2023-06-09T19:43:15.437Z,24.10
2023-06-09T19:45:43.632Z,24.09
2023-06-09T19:48:11.464Z,24.09
2023-06-09T19:50:39.148Z,24.07
2023-06-09T19:53:06.726Z,24.05
2023-06-09T19:55:34.185Z,23.98
2023-06-09T19:58:01.686Z,23.98
2023-06-09T20:00:29.159Z,23.91
2023-06-09T20:02:57.174Z,23.91
2023-06-09T20:05:24.614Z,23.91
2023-06-09T20:07:52.069Z,23.92
2023-06-09T20:10:19.479Z,23.88
2023-06-09T20:12:46.892Z,23.86
2023-06-09T20:15:14.879Z,23.86
2023-06-09T20:17:42.451Z,23.83
2023-06-09T20:20:11.203Z,23.76
2023-06-09T20:22:41.788Z,23.75
2023-06-09T20:25:09.997Z,23.75
2023-06-09T20:27:37.895Z,23.73
2023-06-09T20:30:05.946Z,23.73
2023-06-09T20:32:33.417Z,23.69
2023-06-09T20:35:01.401Z,23.68
2023-06-09T20:37:29.467Z,23.70
2023-06-09T20:39:57.575Z,23.72
2023-06-09T20:42:25.053Z,23.65
2023-06-09T20:44:52.973Z,23.63
2023-06-09T20:47:20.690Z,23.66
2023-06-09T20:49:48.313Z,23.55
2023-06-09T20:52:15.738Z,23.53
2023-06-09T20:54:44.464Z,23.38
2023-06-09T20:57:11.946Z,23.35
2023-06-09T20:59:39.687Z,23.34
2023-06-09T21:02:08.461Z,23.37
2023-06-09T21:04:35.872Z,23.40
2023-06-09T21:07:04.247Z,23.40
2023-06-09T21:09:31.669Z,23.46
2023-06-09T21:11:59.132Z,23.52
2023-06-09T21:15:00.293Z,23.38
2023-06-09T21:17:27.831Z,23.45
2023-06-09T21:19:55.328Z,23.43
2023-06-09T21:22:22.767Z,23.38
2023-06-09T21:24:50.992Z,23.42
2023-06-09T21:27:18.399Z,23.47
2023-06-09T21:29:45.944Z,23.44
2023-06-09T21:32:13.458Z,23.45
2023-06-09T21:34:40.943Z,23.41
2023-06-09T21:37:08.380Z,23.41
2023-06-09T21:39:35.899Z,23.43
2023-06-09T21:42:03.817Z,23.41
2023-06-09T21:44:31.261Z,23.49
2023-06-09T21:46:58.803Z,23.45
2023-06-09T21:49:26.291Z,23.41
2023-06-09T21:51:53.819Z,23.37
2023-06-09T21:54:21.310Z,23.35
2023-06-09T21:56:48.751Z,23.38
2023-06-09T21:59:17.167Z,23.45
2023-06-09T22:01:44.720Z,23.42
2023-06-09T22:04:12.442Z,23.51
2023-06-09T22:06:39.949Z,23.57
2023-06-09T22:09:07.539Z,23.54
2023-06-09T22:11:35.834Z,23.40
2023-06-09T22:14:04.728Z,23.36
2023-06-09T22:16:32.193Z,23.23
2023-06-09T22:18:59.684Z,23.24
2023-06-09T22:21:27.136Z,23.30
2023-06-09T22:23:54.703Z,23.35
2023-06-09T22:26:22.465Z,23.12
2023-06-09T22:28:50.067Z,22.90
2023-06-09T22:31:18.235Z,22.77
2023-06-09T22:33:46.460Z,22.79
2023-06-09T22:36:15.715Z,22.79
2023-06-09T22:38:43.207Z,22.83
2023-06-09T22:41:10.896Z,22.80
2023-06-09T22:43:38.385Z,22.85
2023-06-09T22:46:05.938Z,22.80
2023-06-09T22:48:36.512Z,22.81
2023-06-09T22:51:07.698Z,22.90
2023-06-09T22:53:36.173Z,22.90
2023-06-09T22:56:04.007Z,22.88
2023-06-09T22:58:31.555Z,22.94
2023-06-09T23:00:59.097Z,22.95
2023-06-09T23:03:26.653Z,22.97
2023-06-09T23:05:57.527Z,22.88
2023-06-09T23:08:25.190Z,22.90
2023-06-09T23:10:52.716Z,22.83
2023-06-09T23:13:20.223Z,22.88
2023-06-09T23:15:47.694Z,22.84
2023-06-09T23:18:15.380Z,22.84
2023-06-09T23:20:42.896Z,22.82
2023-06-09T23:23:16.092Z,22.81
2023-06-09T23:25:43.658Z,22.80
2023-06-09T23:28:11.227Z,22.76
2023-06-09T23:30:38.674Z,22.74
2023-06-09T23:33:06.495Z,22.70
2023-06-09T23:35:35.238Z,22.65
2023-06-09T23:38:03.044Z,22.72
2023-06-09T23:40:30.673Z,22.74
2023-06-09T23:42:58.123Z,22.70
2023-06-09T23:45:25.896Z,22.67
2023-06-09T23:47:53.627Z,22.56
2023-06-09T23:50:21.886Z,22.58
2023-06-09T23:52:49.400Z,22.56
2023-06-09T23:55:16.976Z,22.57
2023-06-09T23:57:44.484Z,22.62
